Elkhart Lake, Wisconsin
Current Conditions -  °F | °C
As of 2:23 AM on Tuesday 27 Jan 2015 (Local Time) from KSBM Reporting Station
Overcast Overcast  
Wind Chill: 16°   Ceiling: 1300
Heat Index: 26°   Visibility: 10mi
Dew Point: 20°   Wind: 10mph
Humidity: 78%   Direction: 90°E
Pressure: 30"   Gusts: NA
Location:  43.83°N, 88.02°W
Report Text: KSBM 270823Z AUTO 09009KT 10SM BKN013 OVC023 M03/M07 A3000 RMK AO2 T10331067
Loading
Personal Weather Stations






























Interactive Weather Map New forecast layout! Learn more

10-Day Weather Forecast

Advertisements
Track Severe Weather on mobile